createdAt,value
2022-08-12T00:00:00.399Z,2.9
2022-08-12T00:05:00.304Z,1.8
2022-08-12T00:10:00.346Z,0.0
2022-08-12T00:15:00.333Z,0.0
2022-08-12T00:20:00.366Z,0.0
2022-08-12T00:25:00.302Z,0.0
2022-08-12T00:30:00.398Z,0.0
2022-08-12T00:35:09.512Z,1.4
2022-08-12T00:40:00.389Z,0.0
2022-08-12T00:45:00.348Z,0.0
2022-08-12T00:50:00.368Z,1.8
2022-08-12T00:55:00.367Z,3.6
2022-08-12T01:00:00.449Z,1.4
2022-08-12T01:05:00.382Z,0.0
2022-08-12T01:10:00.337Z,0.0
2022-08-12T01:15:00.334Z,0.0
2022-08-12T01:20:00.446Z,0.0
2022-08-12T01:25:00.301Z,0.0
2022-08-12T01:30:00.468Z,0.0
2022-08-12T01:35:00.314Z,0.0
2022-08-12T01:40:30.953Z,0.0
2022-08-12T01:45:00.353Z,0.0
2022-08-12T01:50:00.352Z,0.0
2022-08-12T01:55:00.300Z,0.0
2022-08-12T02:00:00.400Z,0.0
2022-08-12T02:05:00.302Z,0.0
2022-08-12T02:10:00.363Z,0.0
2022-08-12T02:15:00.467Z,0.0
2022-08-12T02:20:00.421Z,0.0
2022-08-12T02:25:00.387Z,0.0
2022-08-12T02:30:00.355Z,0.0
2022-08-12T02:35:00.342Z,0.0
2022-08-12T02:40:00.739Z,0.0
2022-08-12T02:45:00.323Z,0.0
2022-08-12T02:50:00.373Z,0.0
2022-08-12T02:55:00.299Z,0.0
2022-08-12T03:00:00.405Z,1.4
2022-08-12T03:05:00.299Z,0.0
2022-08-12T03:10:14.623Z,0.0
2022-08-12T03:15:00.350Z,0.0
2022-08-12T03:20:11.406Z,0.0
2022-08-12T03:25:00.296Z,0.0
2022-08-12T03:30:00.367Z,0.0
2022-08-12T03:35:00.336Z,0.0
2022-08-12T03:40:00.747Z,0.0
2022-08-12T03:45:00.417Z,0.0
2022-08-12T03:50:00.342Z,0.0
2022-08-12T03:55:00.355Z,0.0
2022-08-12T04:00:00.353Z,0.0
2022-08-12T04:05:00.323Z,0.0
2022-08-12T04:10:00.308Z,0.0
2022-08-12T04:15:00.296Z,0.0
2022-08-12T04:20:00.389Z,1.4
2022-08-12T04:25:00.329Z,0.0
2022-08-12T04:30:33.181Z,1.4
2022-08-12T04:35:00.303Z,2.5
2022-08-12T04:40:00.350Z,0.0
2022-08-12T04:45:00.307Z,2.2
2022-08-12T04:50:00.398Z,0.0
2022-08-12T04:55:00.344Z,0.0
2022-08-12T05:00:00.406Z,1.4
2022-08-12T05:05:01.450Z,1.8
2022-08-12T05:10:02.810Z,0.0
2022-08-12T05:15:00.312Z,1.4
2022-08-12T05:20:00.671Z,1.4
2022-08-12T05:25:00.386Z,0.0
2022-08-12T05:30:09.519Z,1.4
2022-08-12T05:35:00.384Z,0.0
2022-08-12T05:40:00.757Z,0.0
2022-08-12T05:45:00.342Z,0.0
2022-08-12T05:50:00.410Z,1.4
2022-08-12T05:55:00.335Z,2.2
2022-08-12T06:00:00.491Z,0.0
2022-08-12T06:05:00.630Z,1.4
2022-08-12T06:10:00.353Z,2.2
2022-08-12T06:15:00.415Z,5.4
2022-08-12T06:20:22.433Z,1.8
2022-08-12T06:25:00.397Z,2.2
2022-08-12T06:30:24.202Z,3.2
2022-08-12T06:35:24.479Z,2.5
2022-08-12T06:40:04.555Z,2.9
2022-08-12T06:45:00.425Z,4.7
2022-08-12T06:50:00.353Z,2.5
2022-08-12T06:55:00.314Z,1.4
2022-08-12T07:00:00.370Z,3.2
2022-08-12T07:05:00.346Z,3.6
2022-08-12T07:10:08.778Z,4.3
2022-08-12T07:15:00.311Z,3.6
2022-08-12T07:20:05.103Z,3.2
2022-08-12T07:25:00.331Z,4.7
2022-08-12T07:30:05.625Z,2.2
2022-08-12T07:35:00.334Z,5.0
2022-08-12T07:40:01.743Z,6.1
2022-08-12T07:45:00.360Z,5.8
2022-08-12T07:50:06.942Z,6.1
2022-08-12T07:55:00.329Z,4.0
2022-08-12T08:00:00.388Z,7.2
2022-08-12T08:05:00.325Z,8.6
2022-08-12T08:10:00.933Z,4.7
2022-08-12T08:15:00.379Z,8.3
2022-08-12T08:20:04.707Z,4.0
2022-08-12T08:25:00.390Z,7.9
2022-08-12T08:30:00.501Z,9.4
2022-08-12T08:35:01.030Z,11.5
2022-08-12T08:40:00.749Z,7.6
2022-08-12T08:45:00.327Z,13.3
2022-08-12T08:50:00.365Z,15.1
2022-08-12T08:55:00.403Z,9.0
2022-08-12T09:00:00.380Z,2.5
2022-08-12T09:05:24.974Z,2.2
2022-08-12T09:10:04.338Z,4.0
2022-08-12T09:15:00.347Z,7.2
2022-08-12T09:20:01.823Z,1.4
2022-08-12T09:25:06.440Z,4.3
2022-08-12T09:30:14.575Z,15.8
2022-08-12T09:35:00.333Z,7.2
2022-08-12T09:40:55.931Z,11.2
2022-08-12T09:45:22.903Z,5.0
2022-08-12T09:50:00.457Z,14.8
2022-08-12T09:55:03.917Z,13.3
2022-08-12T10:00:19.319Z,14.4
2022-08-12T10:05:00.902Z,10.8
2022-08-12T10:10:01.360Z,12.2
2022-08-12T10:15:00.661Z,10.8
2022-08-12T10:20:02.074Z,8.3
2022-08-12T10:25:00.390Z,4.3
2022-08-12T10:30:41.347Z,1.8
2022-08-12T10:35:00.311Z,16.2
2022-08-12T10:40:21.975Z,10.8
2022-08-12T10:45:00.345Z,8.6
2022-08-12T10:50:28.404Z,10.8
2022-08-12T10:55:01.254Z,6.8
2022-08-12T11:00:32.334Z,6.5
2022-08-12T11:07:04.431Z,16.2
2022-08-12T11:10:03.476Z,13.3
2022-08-12T11:15:21.044Z,12.2
2022-08-12T11:20:02.301Z,12.2
2022-08-12T11:25:00.282Z,7.2
2022-08-12T11:30:30.909Z,15.1
2022-08-12T11:35:00.341Z,5.0
2022-08-12T11:40:00.311Z,4.7
2022-08-12T11:45:00.260Z,12.2
2022-08-12T11:50:01.524Z,8.6
2022-08-12T11:55:00.287Z,5.8
2022-08-12T12:05:00.299Z,5.4
2022-08-12T12:10:00.322Z,10.8
2022-08-12T12:15:09.803Z,7.2
2022-08-12T12:20:00.368Z,13.0
2022-08-12T12:25:14.600Z,14.0
2022-08-12T12:30:29.505Z,15.8
2022-08-12T12:36:05.376Z,7.6
2022-08-12T12:40:00.494Z,11.2
2022-08-12T12:45:00.307Z,15.8
2022-08-12T12:50:00.315Z,18.0
2022-08-12T12:55:00.321Z,6.5
2022-08-12T13:00:01.219Z,9.4
2022-08-12T13:05:02.626Z,16.2
2022-08-12T13:10:02.323Z,8.3
2022-08-12T13:15:00.280Z,20.2
2022-08-12T13:20:00.328Z,8.6
2022-08-12T13:25:00.798Z,12.2
2022-08-12T13:30:10.872Z,10.1
2022-08-12T13:35:19.484Z,15.8
2022-08-12T13:40:00.357Z,12.6
2022-08-12T13:45:03.378Z,13.3
2022-08-12T13:50:00.306Z,13.3
2022-08-12T13:55:06.505Z,15.1
2022-08-12T14:00:02.063Z,11.2
2022-08-12T14:05:00.380Z,7.2
2022-08-12T14:10:01.900Z,15.8
2022-08-12T14:15:00.852Z,7.2
2022-08-12T14:20:01.448Z,9.0
2022-08-12T14:25:00.784Z,5.8
2022-08-12T14:30:24.272Z,5.8
2022-08-12T14:35:00.295Z,7.9
2022-08-12T14:40:01.649Z,8.3
2022-08-12T14:45:02.431Z,7.2
2022-08-12T14:50:34.629Z,5.0
2022-08-12T15:00:00.596Z,13.7
2022-08-12T15:05:00.330Z,8.3
2022-08-12T15:10:03.549Z,10.4
2022-08-12T15:15:02.046Z,6.5
2022-08-12T15:20:32.116Z,9.7
2022-08-12T15:25:01.871Z,8.6
2022-08-12T15:30:00.481Z,10.8
2022-08-12T15:35:00.720Z,7.2
2022-08-12T15:40:01.838Z,13.0
2022-08-12T15:45:00.337Z,15.5
2022-08-12T15:50:01.692Z,15.8
2022-08-12T15:55:11.945Z,6.5
2022-08-12T16:00:22.355Z,7.9
2022-08-12T16:05:01.452Z,10.8
2022-08-12T16:10:09.304Z,7.9
2022-08-12T16:15:01.767Z,15.5
2022-08-12T16:20:05.950Z,13.0
2022-08-12T16:25:00.337Z,9.7
2022-08-12T16:30:00.452Z,8.3
2022-08-12T16:35:01.092Z,9.7
2022-08-12T16:40:06.485Z,10.8
2022-08-12T16:45:02.744Z,13.0
2022-08-12T16:50:02.738Z,16.6
2022-08-12T16:55:03.878Z,16.6
2022-08-12T17:00:02.568Z,6.1
2022-08-12T17:05:04.331Z,6.8
2022-08-12T17:10:00.602Z,9.7
2022-08-12T17:15:00.982Z,7.6
2022-08-12T17:20:30.107Z,7.9
2022-08-12T17:25:02.714Z,7.9
2022-08-12T17:30:06.500Z,7.6
2022-08-12T17:35:00.703Z,4.3
2022-08-12T17:40:19.334Z,8.6
2022-08-12T17:45:17.694Z,3.6
2022-08-12T17:50:04.684Z,5.0
2022-08-12T17:55:00.312Z,10.1
2022-08-12T18:00:01.206Z,7.2
2022-08-12T18:05:10.914Z,3.6
2022-08-12T18:10:01.091Z,4.3
2022-08-12T18:15:00.330Z,4.3
2022-08-12T18:20:08.474Z,4.0
2022-08-12T18:25:06.670Z,1.4
2022-08-12T18:30:04.981Z,0.0
2022-08-12T18:35:11.400Z,0.0
2022-08-12T18:40:00.722Z,0.0
2022-08-12T18:45:00.313Z,0.0
2022-08-12T18:50:00.349Z,1.4
2022-08-12T18:55:10.473Z,0.0
2022-08-12T19:00:08.036Z,0.0
2022-08-12T19:05:10.258Z,0.0
2022-08-12T19:10:04.651Z,0.0
2022-08-12T19:15:05.190Z,1.8
2022-08-12T19:20:00.371Z,1.4
2022-08-12T19:25:00.339Z,0.0
2022-08-12T19:30:09.402Z,0.0
2022-08-12T19:36:14.675Z,0.0
2022-08-12T19:40:32.051Z,0.0
2022-08-12T19:45:00.423Z,0.0
2022-08-12T19:50:00.340Z,0.0
2022-08-12T19:55:00.292Z,0.0
2022-08-12T20:00:04.944Z,0.0
2022-08-12T20:05:25.445Z,0.0
2022-08-12T20:10:00.310Z,0.0
2022-08-12T20:15:05.756Z,0.0
2022-08-12T20:20:20.058Z,0.0
2022-08-12T20:25:02.454Z,0.0
2022-08-12T20:30:00.315Z,1.8
2022-08-12T20:35:01.083Z,1.4
2022-08-12T20:40:05.851Z,4.0
2022-08-12T20:45:00.356Z,4.7
2022-08-12T20:50:00.408Z,5.8
2022-08-12T20:55:00.325Z,2.5
2022-08-12T21:00:00.383Z,3.6
2022-08-12T21:05:00.286Z,2.9
2022-08-12T21:10:00.412Z,2.9
2022-08-12T21:15:23.258Z,1.4
2022-08-12T21:20:01.896Z,2.2
2022-08-12T21:25:00.341Z,2.2
2022-08-12T21:30:00.353Z,0.0
2022-08-12T21:35:06.325Z,3.2
2022-08-12T21:40:15.149Z,1.8
2022-08-12T21:45:45.015Z,0.0
2022-08-12T21:50:07.983Z,0.0
2022-08-12T21:55:00.325Z,0.0
2022-08-12T22:00:01.928Z,1.4
2022-08-12T22:05:02.644Z,2.9
2022-08-12T22:10:03.102Z,4.7
2022-08-12T22:15:00.399Z,1.8
2022-08-12T22:20:01.698Z,3.6
2022-08-12T22:25:00.300Z,4.0
2022-08-12T22:30:01.311Z,2.5
2022-08-12T22:35:01.193Z,3.6
2022-08-12T22:40:01.007Z,2.9
2022-08-12T22:45:01.209Z,1.4
2022-08-12T22:50:00.789Z,2.5
2022-08-12T22:55:05.798Z,2.5
2022-08-12T23:00:00.332Z,2.5
2022-08-12T23:05:01.121Z,2.5
2022-08-12T23:10:01.684Z,4.0
2022-08-12T23:15:00.285Z,3.6
2022-08-12T23:20:01.760Z,0.0
2022-08-12T23:25:00.596Z,0.0
2022-08-12T23:30:24.871Z,2.9
2022-08-12T23:35:00.991Z,2.2
2022-08-12T23:40:18.119Z,3.2
2022-08-12T23:45:20.842Z,1.8
2022-08-12T23:50:16.348Z,3.2
2022-08-12T23:55:24.304Z,1.4
